Time;durP1;ratioP1;P1;durP2;ratioP2;P2;SDS_P1;SDS_P2;PMS_P1;PMS_P2;Temp;Humidity;BMP_temperature;BMP_pressure;BME280_temperature;BME280_humidity;BME280_pressure;Samples;Min_cycle;Max_cycle;Signal;HPM_P1;HPM_P2
2022/04/24 00:00:04;;;;;;;7.28;6.03;;;;;;;;;;5027187;28;20417;-77
2022/04/24 00:02:31;;;;;;;12.05;6.13;;;;;;;;;;5031068;28;20442;-77
2022/04/24 00:04:57;;;;;;;8.75;6.03;;;;;;;;;;5030695;28;20107;-77
2022/04/24 00:07:23;;;;;;;9.38;6.13;;;;;;;;;;5034576;28;20390;-77
2022/04/24 00:09:49;;;;;;;10.05;5.75;;;;;;;;;;5028278;28;20064;-77
2022/04/24 00:12:18;;;;;;;8.20;5.95;;;;;;;;;;5041584;28;20053;-76
2022/04/24 00:14:45;;;;;;;10.95;6.20;;;;;;;;;;5015715;28;20107;-77
2022/04/24 00:17:11;;;;;;;9.55;6.10;;;;;;;;;;5028436;28;20033;-77
2022/04/24 00:19:38;;;;;;;7.47;5.65;;;;;;;;;;5031019;28;20120;-76
2022/04/24 00:22:04;;;;;;;7.90;6.57;;;;;;;;;;5029125;28;20033;-77
2022/04/24 00:24:32;;;;;;;8.02;5.35;;;;;;;;;;5024602;28;20118;-77
2022/04/24 00:26:58;;;;;;;7.10;6.10;;;;;;;;;;5021896;28;20634;-78
2022/04/24 00:29:24;;;;;;;7.60;5.40;;;;;;;;;;5011052;28;20084;-77
2022/04/24 00:31:50;;;;;;;6.70;5.93;;;;;;;;;;5044756;28;20052;-78
2022/04/24 00:34:16;;;;;;;6.35;5.22;;;;;;;;;;5029185;28;20037;-77
2022/04/24 00:36:44;;;;;;;7.18;5.07;;;;;;;;;;5032571;28;20079;-78
2022/04/24 00:39:10;;;;;;;9.30;5.63;;;;;;;;;;5046718;28;20040;-78
2022/04/24 00:41:43;;;;;;;9.55;5.57;;;;;;;;;;5033071;28;20033;-78
2022/04/24 00:44:09;;;;;;;7.55;5.43;;;;;;;;;;5030895;28;20492;-77
2022/04/24 00:46:41;;;;;;;8.35;5.35;;;;;;;;;;5029603;28;20116;-77
2022/04/24 00:49:11;;;;;;;8.73;5.40;;;;;;;;;;5016973;28;20025;-77
2022/04/24 00:51:43;;;;;;;11.77;5.43;;;;;;;;;;5034134;28;20056;-77
2022/04/24 00:54:10;;;;;;;8.77;5.03;;;;;;;;;;5017260;28;20124;-77
2022/04/24 00:56:37;;;;;;;12.50;5.22;;;;;;;;;;5034009;28;20033;-77
2022/04/24 00:59:04;;;;;;;6.53;5.38;;;;;;;;;;5014185;28;20040;-77
2022/04/24 01:01:31;;;;;;;7.47;5.35;;;;;;;;;;5033659;28;20044;-77
2022/04/24 01:04:02;;;;;;;9.30;5.32;;;;;;;;;;5015894;28;20044;-77
2022/04/24 01:06:30;;;;;;;8.73;5.57;;;;;;;;;;5028054;28;20041;-77
2022/04/24 01:08:56;;;;;;;5.85;4.75;;;;;;;;;;5035336;28;20039;-77
2022/04/24 01:11:22;;;;;;;9.60;5.30;;;;;;;;;;5033310;28;20911;-77
2022/04/24 01:13:48;;;;;;;7.47;5.40;;;;;;;;;;5014910;28;20445;-76
2022/04/24 01:16:14;;;;;;;8.70;5.47;;;;;;;;;;5030710;28;20040;-77
2022/04/24 01:18:41;;;;;;;9.18;6.18;;;;;;;;;;5033203;28;20034;-76
2022/04/24 01:21:10;;;;;;;7.40;5.80;;;;;;;;;;5033096;28;20041;-77
2022/04/24 01:23:38;;;;;;;7.47;5.35;;;;;;;;;;5029611;28;20041;-76
2022/04/24 01:26:05;;;;;;;7.90;4.90;;;;;;;;;;5024945;28;20054;-77
2022/04/24 01:28:32;;;;;;;8.05;5.47;;;;;;;;;;5005839;28;20092;-77
2022/04/24 01:30:58;;;;;;;7.53;5.25;;;;;;;;;;5003172;28;20030;-77
2022/04/24 01:33:24;;;;;;;6.47;4.82;;;;;;;;;;5011503;28;20467;-76
2022/04/24 01:35:50;;;;;;;7.75;5.20;;;;;;;;;;5018491;28;20054;-77
2022/04/24 01:38:16;;;;;;;9.00;5.25;;;;;;;;;;4995754;28;20460;-77
2022/04/24 01:40:42;;;;;;;6.97;4.90;;;;;;;;;;5014163;28;20167;-76
2022/04/24 01:43:08;;;;;;;6.60;5.30;;;;;;;;;;5010313;28;20042;-77
2022/04/24 01:45:34;;;;;;;7.90;5.13;;;;;;;;;;5008553;28;20038;-77
2022/04/24 01:48:00;;;;;;;8.65;5.43;;;;;;;;;;5007301;28;20030;-77
2022/04/24 01:50:26;;;;;;;8.50;5.80;;;;;;;;;;4997373;28;20026;-77
2022/04/24 01:52:53;;;;;;;11.40;5.32;;;;;;;;;;5017365;28;20025;-77
2022/04/24 01:55:19;;;;;;;6.30;5.03;;;;;;;;;;5012609;28;20378;-77
2022/04/24 01:57:45;;;;;;;6.88;5.65;;;;;;;;;;5010362;28;20113;-77
2022/04/24 02:00:11;;;;;;;8.57;6.25;;;;;;;;;;5012357;28;20081;-77
2022/04/24 02:02:37;;;;;;;5.80;4.75;;;;;;;;;;4994472;28;20038;-77
2022/04/24 02:05:03;;;;;;;7.13;4.97;;;;;;;;;;5011999;28;20034;-79
2022/04/24 02:07:30;;;;;;;7.22;5.22;;;;;;;;;;4994827;28;20101;-78
2022/04/24 02:09:56;;;;;;;8.48;5.32;;;;;;;;;;5013523;28;20030;-76
2022/04/24 02:12:22;;;;;;;8.00;5.35;;;;;;;;;;5004867;28;20038;-76
2022/04/24 02:14:48;;;;;;;24.92;14.30;;;;;;;;;;5010940;28;20057;-78
2022/04/24 02:17:14;;;;;;;15.82;10.15;;;;;;;;;;4999612;28;20033;-75
2022/04/24 02:19:40;;;;;;;9.93;6.90;;;;;;;;;;4982178;28;20042;-77
2022/04/24 02:22:06;;;;;;;8.70;5.57;;;;;;;;;;5013137;28;20343;-79
2022/04/24 02:24:32;;;;;;;8.77;6.03;;;;;;;;;;4985218;28;20433;-78
2022/04/24 02:26:58;;;;;;;7.05;5.55;;;;;;;;;;5017981;28;20045;-79
2022/04/24 02:29:27;;;;;;;6.45;5.30;;;;;;;;;;5015014;28;20045;-79
2022/04/24 02:31:53;;;;;;;8.52;5.68;;;;;;;;;;5013624;28;20065;-78
2022/04/24 02:34:19;;;;;;;11.63;6.57;;;;;;;;;;5003317;28;20102;-79
2022/04/24 02:36:45;;;;;;;8.93;6.75;;;;;;;;;;5014008;28;20030;-79
2022/04/24 02:39:11;;;;;;;8.23;6.20;;;;;;;;;;4998323;28;20034;-78
2022/04/24 02:41:37;;;;;;;7.03;6.25;;;;;;;;;;5015402;28;20285;-78
2022/04/24 02:44:03;;;;;;;9.32;6.65;;;;;;;;;;5014637;28;20041;-79
2022/04/24 02:46:29;;;;;;;7.78;6.82;;;;;;;;;;5017444;28;20030;-79
2022/04/24 02:48:56;;;;;;;8.25;7.07;;;;;;;;;;5017075;28;20026;-79
2022/04/24 02:51:22;;;;;;;10.90;6.85;;;;;;;;;;5017682;28;20097;-79
2022/04/24 02:53:48;;;;;;;10.88;7.95;;;;;;;;;;5018889;28;20042;-79
2022/04/24 02:56:14;;;;;;;11.48;9.60;;;;;;;;;;5016465;28;20057;-79
2022/04/24 02:58:40;;;;;;;14.98;12.60;;;;;;;;;;5017980;28;20048;-80
2022/04/24 03:01:08;;;;;;;14.98;12.38;;;;;;;;;;5020929;28;20025;-79
2022/04/24 03:03:34;;;;;;;12.55;10.77;;;;;;;;;;5017261;28;20053;-79
2022/04/24 03:06:00;;;;;;;14.45;10.27;;;;;;;;;;5014246;28;20030;-79
2022/04/24 03:08:27;;;;;;;15.15;9.30;;;;;;;;;;5022104;28;20029;-79
2022/04/24 03:10:53;;;;;;;12.02;8.50;;;;;;;;;;5025315;28;20057;-80
2022/04/24 03:13:19;;;;;;;9.25;7.97;;;;;;;;;;5021568;28;20034;-79
2022/04/24 03:15:46;;;;;;;11.05;8.20;;;;;;;;;;5017527;28;20022;-79
2022/04/24 03:18:12;;;;;;;10.18;8.25;;;;;;;;;;5023134;28;20041;-79
2022/04/24 03:20:38;;;;;;;10.52;8.38;;;;;;;;;;4995033;28;20034;-79
2022/04/24 03:23:04;;;;;;;10.02;7.63;;;;;;;;;;5012659;28;20082;-80
2022/04/24 03:25:30;;;;;;;8.85;7.25;;;;;;;;;;5014852;28;21827;-79
2022/04/24 03:27:56;;;;;;;9.32;7.50;;;;;;;;;;5036705;28;20025;-79
2022/04/24 03:30:22;;;;;;;9.10;6.80;;;;;;;;;;5034311;28;20030;-79
2022/04/24 03:32:49;;;;;;;12.05;7.60;;;;;;;;;;5015710;28;20045;-79
2022/04/24 03:35:15;;;;;;;9.20;6.78;;;;;;;;;;5032696;28;20089;-79
2022/04/24 03:37:43;;;;;;;9.95;7.97;;;;;;;;;;5029451;28;20030;-80
2022/04/24 03:40:10;;;;;;;10.57;7.68;;;;;;;;;;5024676;28;20028;-79
2022/04/24 03:42:36;;;;;;;10.00;7.25;;;;;;;;;;5036681;28;20467;-79
2022/04/24 03:45:06;;;;;;;11.45;7.07;;;;;;;;;;5036701;28;20033;-80
2022/04/24 03:47:32;;;;;;;8.75;6.90;;;;;;;;;;5037102;28;20033;-79
2022/04/24 03:49:58;;;;;;;8.43;6.78;;;;;;;;;;5035194;28;20036;-79
2022/04/24 03:52:24;;;;;;;9.85;7.20;;;;;;;;;;5032123;28;20065;-79
2022/04/24 03:54:50;;;;;;;12.15;7.43;;;;;;;;;;5034937;28;20028;-79
2022/04/24 03:57:16;;;;;;;9.43;7.22;;;;;;;;;;5030405;28;20029;-79
2022/04/24 03:59:42;;;;;;;9.35;6.88;;;;;;;;;;5013238;28;20065;-79
2022/04/24 04:02:08;;;;;;;9.95;7.25;;;;;;;;;;5033089;28;20120;-79
2022/04/24 04:04:34;;;;;;;7.78;6.88;;;;;;;;;;5034453;28;20112;-79
2022/04/24 04:07:00;;;;;;;9.70;7.05;;;;;;;;;;5031648;28;20036;-79
2022/04/24 04:09:26;;;;;;;8.27;7.03;;;;;;;;;;5034118;28;20056;-79
2022/04/24 04:11:52;;;;;;;8.45;6.78;;;;;;;;;;5027811;28;20667;-79
2022/04/24 04:14:19;;;;;;;10.55;7.60;;;;;;;;;;5032292;28;20029;-78
2022/04/24 04:16:45;;;;;;;9.88;7.80;;;;;;;;;;5035811;28;20052;-78
2022/04/24 04:19:11;;;;;;;10.98;7.78;;;;;;;;;;5025655;28;20441;-79
2022/04/24 04:21:37;;;;;;;8.82;6.72;;;;;;;;;;5016317;28;20068;-79
2022/04/24 04:24:03;;;;;;;13.80;6.93;;;;;;;;;;5018650;28;20037;-79
2022/04/24 04:26:29;;;;;;;15.32;7.03;;;;;;;;;;5017637;28;20049;-78
2022/04/24 04:28:55;;;;;;;11.02;7.90;;;;;;;;;;5033746;28;20034;-79
2022/04/24 04:31:21;;;;;;;9.82;7.00;;;;;;;;;;5032537;28;20428;-79
2022/04/24 04:33:48;;;;;;;12.68;7.25;;;;;;;;;;5019071;28;20125;-78
2022/04/24 04:36:14;;;;;;;8.25;6.40;;;;;;;;;;5037608;28;20029;-79
2022/04/24 04:38:40;;;;;;;15.02;7.30;;;;;;;;;;5001648;28;20434;-79
2022/04/24 04:41:06;;;;;;;7.53;6.60;;;;;;;;;;5025017;28;20424;-79
2022/04/24 04:43:32;;;;;;;12.57;7.35;;;;;;;;;;5036893;28;20041;-79
2022/04/24 04:45:58;;;;;;;12.43;7.28;;;;;;;;;;5038749;28;20065;-79
2022/04/24 04:48:24;;;;;;;8.88;7.18;;;;;;;;;;5031226;28;20378;-79
2022/04/24 04:50:50;;;;;;;7.72;6.60;;;;;;;;;;5042761;28;20038;-79
2022/04/24 04:53:16;;;;;;;10.07;6.88;;;;;;;;;;5039596;28;20488;-79
2022/04/24 04:55:42;;;;;;;10.25;7.32;;;;;;;;;;5037733;28;20037;-79
2022/04/24 04:58:08;;;;;;;10.15;7.50;;;;;;;;;;5029487;28;20033;-79
2022/04/24 05:00:34;;;;;;;9.82;6.55;;;;;;;;;;5038575;28;20110;-79
2022/04/24 05:03:00;;;;;;;10.05;6.97;;;;;;;;;;5037133;28;20049;-80
2022/04/24 05:05:26;;;;;;;8.10;6.38;;;;;;;;;;5040362;28;20029;-79
2022/04/24 05:07:53;;;;;;;11.13;7.07;;;;;;;;;;5037016;28;20040;-79
2022/04/24 05:10:19;;;;;;;17.42;7.88;;;;;;;;;;5035443;28;20384;-79
2022/04/24 05:12:45;;;;;;;9.27;6.55;;;;;;;;;;5034402;28;20472;-79
2022/04/24 05:15:13;;;;;;;9.43;6.78;;;;;;;;;;5030703;28;20080;-79
2022/04/24 05:17:39;;;;;;;11.85;6.10;;;;;;;;;;5034553;28;20037;-79
2022/04/24 05:20:06;;;;;;;10.90;7.07;;;;;;;;;;5032570;28;20037;-79
2022/04/24 05:22:32;;;;;;;8.80;6.75;;;;;;;;;;5032360;28;20041;-79
2022/04/24 05:24:58;;;;;;;8.75;6.75;;;;;;;;;;5024230;28;20026;-79
2022/04/24 05:27:24;;;;;;;8.02;6.13;;;;;;;;;;5017576;28;20050;-80
2022/04/24 05:29:52;;;;;;;10.82;6.43;;;;;;;;;;4999771;28;20037;-79
2022/04/24 05:32:18;;;;;;;8.90;5.80;;;;;;;;;;5005687;28;20430;-78
2022/04/24 05:34:44;;;;;;;9.85;6.88;;;;;;;;;;5014907;28;20030;-76
2022/04/24 05:37:11;;;;;;;8.43;6.00;;;;;;;;;;5001107;28;20072;-78
2022/04/24 05:39:37;;;;;;;10.70;6.50;;;;;;;;;;5013400;28;20034;-78
2022/04/24 05:42:04;;;;;;;8.52;6.10;;;;;;;;;;4992336;28;20034;-77
2022/04/24 05:44:30;;;;;;;9.73;6.53;;;;;;;;;;4995142;28;20030;-76
2022/04/24 05:46:56;;;;;;;11.20;7.50;;;;;;;;;;4992605;28;20545;-75
2022/04/24 05:49:22;;;;;;;17.35;11.52;;;;;;;;;;4990399;28;20058;-75
2022/04/24 05:51:48;;;;;;;10.32;6.72;;;;;;;;;;4995273;28;20033;-77
2022/04/24 05:54:15;;;;;;;10.93;6.20;;;;;;;;;;5012249;28;20062;-76
2022/04/24 05:56:41;;;;;;;8.45;6.15;;;;;;;;;;4999663;28;20037;-79
2022/04/24 05:59:08;;;;;;;9.55;6.68;;;;;;;;;;5008465;28;20041;-78
2022/04/24 06:01:34;;;;;;;10.02;7.15;;;;;;;;;;5014529;28;20038;-77
2022/04/24 06:04:00;;;;;;;8.70;6.70;;;;;;;;;;4994827;28;20094;-77
2022/04/24 06:06:30;;;;;;;9.75;7.03;;;;;;;;;;5012264;28;20058;-77
2022/04/24 06:08:56;;;;;;;9.05;6.45;;;;;;;;;;5010069;28;20065;-77
2022/04/24 06:11:22;;;;;;;8.95;6.60;;;;;;;;;;5003875;28;20041;-77
2022/04/24 06:13:48;;;;;;;41.05;24.02;;;;;;;;;;4996749;28;20241;-80
2022/04/24 06:16:15;;;;;;;16.23;9.38;;;;;;;;;;4992722;28;20034;-76
2022/04/24 06:18:41;;;;;;;13.10;7.43;;;;;;;;;;4987986;28;20037;-82
2022/04/24 06:21:07;;;;;;;9.57;7.03;;;;;;;;;;5024977;28;20115;-84
2022/04/24 06:23:33;;;;;;;8.70;5.97;;;;;;;;;;5024846;28;20401;-80
2022/04/24 06:25:59;;;;;;;9.95;7.38;;;;;;;;;;5025444;28;20053;-81
2022/04/24 06:28:25;;;;;;;9.80;6.57;;;;;;;;;;5018370;28;20128;-80
2022/04/24 06:30:51;;;;;;;11.07;8.00;;;;;;;;;;5020317;28;20028;-80
2022/04/24 06:33:20;;;;;;;8.55;6.95;;;;;;;;;;5039913;28;20091;-80
2022/04/24 06:35:46;;;;;;;11.85;7.55;;;;;;;;;;5034431;28;20500;-78
2022/04/24 06:38:12;;;;;;;10.38;6.78;;;;;;;;;;5033898;28;20112;-78
2022/04/24 06:40:38;;;;;;;9.90;6.85;;;;;;;;;;5029610;28;20108;-79
2022/04/24 06:43:08;;;;;;;10.15;6.45;;;;;;;;;;5033059;28;20060;-79
2022/04/24 06:45:52;;;;;;;10.18;6.68;;;;;;;;;;5013807;28;20033;-78
2022/04/24 06:48:18;;;;;;;9.90;6.88;;;;;;;;;;5013922;28;20080;-77
2022/04/24 06:50:45;;;;;;;18.10;10.55;;;;;;;;;;5032956;28;20021;-79
2022/04/24 06:53:13;;;;;;;8.75;6.43;;;;;;;;;;5035170;28;20084;-78
2022/04/24 06:55:42;;;;;;;7.55;5.68;;;;;;;;;;5040954;28;20022;-78
2022/04/24 06:58:10;;;;;;;10.57;5.90;;;;;;;;;;5028631;28;20056;-77
2022/04/24 07:00:42;;;;;;;9.85;5.88;;;;;;;;;;5016980;28;20037;-77
2022/04/24 07:03:20;;;;;;;10.18;6.05;;;;;;;;;;5016447;28;20041;-77
2022/04/24 07:05:47;;;;;;;10.35;5.65;;;;;;;;;;5041369;28;20025;-78
2022/04/24 07:08:13;;;;;;;7.32;5.55;;;;;;;;;;5028871;28;20020;-77
2022/04/24 07:10:40;;;;;;;10.93;5.05;;;;;;;;;;5012735;28;20481;-78
2022/04/24 07:13:06;;;;;;;8.13;5.57;;;;;;;;;;5027784;28;20397;-78
2022/04/24 07:15:39;;;;;;;9.27;5.25;;;;;;;;;;5028078;28;20120;-77
2022/04/24 07:18:07;;;;;;;9.63;4.97;;;;;;;;;;5028294;28;20473;-77
2022/04/24 07:20:33;;;;;;;7.25;4.70;;;;;;;;;;5020239;28;20036;-77
2022/04/24 07:23:01;;;;;;;6.88;4.03;;;;;;;;;;5031274;28;20048;-78
2022/04/24 07:25:28;;;;;;;6.65;4.18;;;;;;;;;;5007047;28;20033;-78
2022/04/24 07:27:54;;;;;;;7.90;4.15;;;;;;;;;;5022398;28;20108;-77
2022/04/24 07:30:21;;;;;;;6.85;3.92;;;;;;;;;;5026893;28;20032;-77
2022/04/24 07:32:47;;;;;;;6.90;3.80;;;;;;;;;;5034956;28;20064;-80
2022/04/24 07:35:14;;;;;;;9.65;5.53;;;;;;;;;;5027922;28;20033;-78
2022/04/24 07:37:41;;;;;;;13.77;8.55;;;;;;;;;;5029848;28;20631;-75
2022/04/24 07:40:08;;;;;;;7.50;3.67;;;;;;;;;;5006818;28;20478;-77
2022/04/24 07:42:44;;;;;;;3.53;3.08;;;;;;;;;;5035103;28;20029;-78
2022/04/24 07:45:10;;;;;;;6.57;2.78;;;;;;;;;;5022992;28;20040;-78
2022/04/24 07:47:36;;;;;;;5.32;2.50;;;;;;;;;;5028144;28;20385;-77
2022/04/24 07:50:02;;;;;;;4.45;2.78;;;;;;;;;;5020441;28;20060;-80
2022/04/24 07:52:28;;;;;;;4.32;2.72;;;;;;;;;;5032219;28;20370;-80
2022/04/24 07:54:54;;;;;;;5.10;2.58;;;;;;;;;;5015892;28;20027;-80
2022/04/24 07:57:21;;;;;;;4.25;2.20;;;;;;;;;;5029116;28;20025;-80
2022/04/24 07:59:47;;;;;;;4.20;2.30;;;;;;;;;;5030231;28;20393;-79
2022/04/24 08:02:13;;;;;;;3.35;1.90;;;;;;;;;;5027805;28;20057;-78
2022/04/24 08:04:39;;;;;;;6.43;2.75;;;;;;;;;;4997102;28;20101;-78
2022/04/24 08:07:07;;;;;;;3.95;1.70;;;;;;;;;;5025643;28;20033;-79
2022/04/24 08:09:33;;;;;;;4.55;1.95;;;;;;;;;;5031133;28;20350;-79
2022/04/24 08:11:59;;;;;;;3.88;2.30;;;;;;;;;;5018248;28;20477;-76
2022/04/24 08:14:25;;;;;;;5.43;2.58;;;;;;;;;;5021220;28;20112;-78
2022/04/24 08:16:51;;;;;;;3.25;1.60;;;;;;;;;;5030871;28;20065;-80
2022/04/24 08:19:18;;;;;;;5.05;1.77;;;;;;;;;;5028681;28;20062;-80
2022/04/24 08:21:45;;;;;;;3.08;1.35;;;;;;;;;;5014579;28;20026;-78
2022/04/24 08:24:11;;;;;;;4.15;2.03;;;;;;;;;;5019255;28;20041;-79
2022/04/24 08:26:37;;;;;;;4.78;1.48;;;;;;;;;;5011784;28;20129;-79
2022/04/24 08:29:03;;;;;;;3.58;1.92;;;;;;;;;;5012710;28;20414;-78
2022/04/24 08:31:29;;;;;;;2.83;1.17;;;;;;;;;;5036758;28;20080;-77
2022/04/24 08:33:57;;;;;;;1.85;1.20;;;;;;;;;;5011599;28;20461;-78
2022/04/24 08:36:24;;;;;;;4.72;1.33;;;;;;;;;;5031882;28;20575;-78
2022/04/24 08:38:50;;;;;;;4.93;2.70;;;;;;;;;;5012386;28;20034;-80
2022/04/24 08:41:23;;;;;;;8.25;3.70;;;;;;;;;;5015262;28;20478;-79
2022/04/24 08:43:49;;;;;;;3.95;1.83;;;;;;;;;;5028480;28;20447;-80
2022/04/24 08:46:15;;;;;;;5.25;1.52;;;;;;;;;;5013150;28;20041;-77
2022/04/24 08:48:42;;;;;;;3.22;1.52;;;;;;;;;;5026418;28;20029;-77
2022/04/24 08:51:09;;;;;;;3.65;1.48;;;;;;;;;;5029991;28;20088;-78
2022/04/24 08:53:36;;;;;;;6.28;1.95;;;;;;;;;;5010726;28;20030;-78
2022/04/24 08:56:02;;;;;;;2.78;1.40;;;;;;;;;;5028174;28;20466;-79
2022/04/24 08:58:30;;;;;;;6.05;1.70;;;;;;;;;;5020703;28;20029;-77
2022/04/24 09:00:57;;;;;;;3.83;1.33;;;;;;;;;;5012778;28;20072;-78
2022/04/24 09:03:23;;;;;;;3.70;1.67;;;;;;;;;;5012511;28;20038;-81
2022/04/24 09:05:49;;;;;;;2.13;1.30;;;;;;;;;;5015520;28;20497;-80
2022/04/24 09:08:15;;;;;;;3.22;1.42;;;;;;;;;;5030691;28;20056;-80
2022/04/24 09:10:51;;;;;;;1.60;1.38;;;;;;;;;;5038464;28;20172;-82
2022/04/24 09:13:26;;;;;;;3.67;1.60;;;;;;;;;;5029602;28;20056;-84
2022/04/24 09:15:56;;;;;;;5.78;1.50;;;;;;;;;;5042495;28;20034;-81
2022/04/24 09:18:22;;;;;;;4.25;1.50;;;;;;;;;;5043280;28;20049;-81
2022/04/24 09:20:55;;;;;;;2.20;1.52;;;;;;;;;;5052801;28;20093;-84
2022/04/24 09:23:21;;;;;;;4.43;1.35;;;;;;;;;;5051286;28;20036;-85
2022/04/24 09:25:47;;;;;;;3.38;1.50;;;;;;;;;;5038130;28;20101;-81
2022/04/24 09:28:13;;;;;;;1.70;1.23;;;;;;;;;;5018805;28;20030;-80
2022/04/24 09:30:49;;;;;;;2.13;1.50;;;;;;;;;;5042203;28;20045;-80
2022/04/24 09:33:15;;;;;;;2.38;1.40;;;;;;;;;;5031714;28;20045;-81
2022/04/24 09:35:42;;;;;;;3.15;1.30;;;;;;;;;;5008114;28;20040;-80
2022/04/24 09:38:09;;;;;;;2.25;1.60;;;;;;;;;;5037501;28;20051;-81
2022/04/24 09:40:43;;;;;;;2.97;1.48;;;;;;;;;;5018207;28;20029;-80
2022/04/24 09:43:10;;;;;;;6.68;1.63;;;;;;;;;;5045457;28;20032;-80
2022/04/24 09:45:37;;;;;;;3.08;1.25;;;;;;;;;;5046681;28;20513;-81
2022/04/24 09:48:10;;;;;;;3.83;1.40;;;;;;;;;;5035179;28;20025;-80
2022/04/24 09:50:37;;;;;;;2.88;2.00;;;;;;;;;;5028005;28;20037;-79
2022/04/24 09:53:04;;;;;;;8.05;5.28;;;;;;;;;;5011762;28;20541;-80
2022/04/24 09:55:30;;;;;;;5.40;2.85;;;;;;;;;;5032828;28;20033;-79
2022/04/24 09:57:56;;;;;;;3.40;2.10;;;;;;;;;;5031476;28;20129;-80
2022/04/24 10:00:23;;;;;;;3.42;2.03;;;;;;;;;;5030694;28;20034;-80
2022/04/24 10:02:52;;;;;;;4.10;1.92;;;;;;;;;;5021028;28;20048;-80
2022/04/24 10:05:18;;;;;;;3.08;2.35;;;;;;;;;;5023024;28;20477;-80
2022/04/24 10:07:46;;;;;;;2.60;1.85;;;;;;;;;;5014667;28;20026;-80
2022/04/24 10:10:12;;;;;;;3.83;2.15;;;;;;;;;;5030648;28;20397;-81
2022/04/24 10:12:40;;;;;;;4.78;2.40;;;;;;;;;;5035107;28;20088;-80
2022/04/24 10:15:11;;;;;;;3.35;1.70;;;;;;;;;;5030260;28;20049;-80
2022/04/24 10:17:56;;;;;;;4.78;2.08;;;;;;;;;;5028855;28;20037;-80
2022/04/24 10:20:28;;;;;;;3.97;2.03;;;;;;;;;;5030915;28;20087;-81
2022/04/24 10:22:54;;;;;;;3.92;2.22;;;;;;;;;;5034086;28;20474;-81
2022/04/24 10:25:31;;;;;;;5.78;2.30;;;;;;;;;;5033293;28;20057;-83
2022/04/24 10:27:57;;;;;;;5.65;2.78;;;;;;;;;;5013636;28;20154;-81
2022/04/24 10:30:24;;;;;;;9.63;1.60;;;;;;;;;;5014227;28;20454;-80
2022/04/24 10:33:10;;;;;;;2.55;1.60;;;;;;;;;;5001250;28;20122;-80
2022/04/24 10:35:45;;;;;;;4.18;1.63;;;;;;;;;;5004562;28;20087;-81
2022/04/24 10:38:11;;;;;;;3.90;1.77;;;;;;;;;;5001653;28;20053;-80
2022/04/24 10:40:39;;;;;;;12.77;5.60;;;;;;;;;;5006065;28;20541;-79
2022/04/24 10:43:07;;;;;;;2.97;2.20;;;;;;;;;;5021058;28;20179;-78
2022/04/24 10:45:44;;;;;;;5.80;2.00;;;;;;;;;;5010605;28;20042;-79
2022/04/24 10:48:17;;;;;;;3.88;2.03;;;;;;;;;;4998098;28;20120;-80
2022/04/24 10:50:51;;;;;;;3.70;2.00;;;;;;;;;;4993680;28;20084;-79
2022/04/24 10:53:17;;;;;;;5.90;1.52;;;;;;;;;;5007346;28;20087;-79
2022/04/24 10:55:43;;;;;;;7.05;2.13;;;;;;;;;;4991584;28;20030;-79
2022/04/24 10:58:10;;;;;;;3.67;2.00;;;;;;;;;;5008741;28;20113;-79
2022/04/24 11:00:38;;;;;;;4.10;1.65;;;;;;;;;;5008103;28;20881;-79
2022/04/24 11:03:07;;;;;;;15.50;9.05;;;;;;;;;;5007156;28;20453;-81
2022/04/24 11:05:38;;;;;;;10.93;4.32;;;;;;;;;;5000448;28;20440;-82
2022/04/24 11:08:05;;;;;;;3.00;1.73;;;;;;;;;;5015275;28;20033;-80
2022/04/24 11:10:38;;;;;;;4.35;1.83;;;;;;;;;;5010834;28;20026;-78
2022/04/24 11:13:04;;;;;;;3.53;1.60;;;;;;;;;;5010208;28;20401;-78
2022/04/24 11:15:30;;;;;;;2.72;1.98;;;;;;;;;;5016855;28;20042;-79
2022/04/24 11:17:56;;;;;;;3.80;1.95;;;;;;;;;;5002421;28;20035;-79
2022/04/24 11:20:27;;;;;;;1.75;1.60;;;;;;;;;;4986138;28;20037;-80
2022/04/24 11:22:56;;;;;;;5.63;2.17;;;;;;;;;;5011566;28;20125;-79
2022/04/24 11:25:23;;;;;;;2.95;1.73;;;;;;;;;;4996784;28;20038;-79
2022/04/24 11:27:54;;;;;;;5.57;1.83;;;;;;;;;;5012569;28;20417;-79
2022/04/24 11:30:37;;;;;;;6.93;1.92;;;;;;;;;;5040333;28;20036;-79
2022/04/24 11:33:07;;;;;;;4.55;2.08;;;;;;;;;;5033580;28;20474;-78
2022/04/24 11:35:40;;;;;;;3.00;2.10;;;;;;;;;;5033897;28;20385;-79
2022/04/24 11:38:13;;;;;;;8.38;2.35;;;;;;;;;;5028636;28;20065;-78
2022/04/24 11:40:48;;;;;;;6.30;2.17;;;;;;;;;;5028335;28;20477;-78
2022/04/24 11:43:18;;;;;;;7.18;2.45;;;;;;;;;;5032031;28;20041;-78
2022/04/24 11:51:19;;;;;;;9.80;2.88;;;;;;;;;;5049917;28;20056;-78
2022/04/24 11:53:45;;;;;;;6.35;2.88;;;;;;;;;;5034715;28;20030;-78
2022/04/24 11:56:12;;;;;;;5.68;2.50;;;;;;;;;;5024063;28;20032;-78
2022/04/24 11:58:39;;;;;;;8.68;3.17;;;;;;;;;;5031047;28;20037;-78
2022/04/24 12:01:11;;;;;;;8.05;2.80;;;;;;;;;;5027285;28;20100;-78
2022/04/24 12:03:37;;;;;;;7.57;3.17;;;;;;;;;;5028338;28;20125;-78
2022/04/24 12:06:05;;;;;;;6.65;3.40;;;;;;;;;;5027948;28;20029;-78
2022/04/24 12:08:41;;;;;;;6.32;2.70;;;;;;;;;;5031753;28;20470;-78
2022/04/24 12:11:07;;;;;;;9.43;4.03;;;;;;;;;;5011395;28;20466;-77
2022/04/24 12:13:34;;;;;;;6.47;3.35;;;;;;;;;;5018123;28;20041;-78
2022/04/24 12:16:01;;;;;;;8.48;3.38;;;;;;;;;;5032079;28;20109;-79
2022/04/24 12:18:28;;;;;;;7.13;3.17;;;;;;;;;;5031244;28;20437;-78
2022/04/24 12:20:55;;;;;;;5.93;3.05;;;;;;;;;;5006806;28;20487;-78
2022/04/24 12:23:22;;;;;;;5.40;3.25;;;;;;;;;;5029379;28;20099;-78
2022/04/24 12:25:53;;;;;;;4.72;2.70;;;;;;;;;;5035293;28;20424;-78
2022/04/24 12:28:29;;;;;;;6.75;3.25;;;;;;;;;;5024098;28;20480;-77
2022/04/24 12:30:57;;;;;;;9.20;3.10;;;;;;;;;;5039565;28;20137;-78
2022/04/24 12:33:23;;;;;;;6.97;3.40;;;;;;;;;;5025269;28;20053;-78
2022/04/24 12:35:49;;;;;;;7.32;3.65;;;;;;;;;;5029772;28;20041;-78
2022/04/24 12:38:16;;;;;;;4.93;3.13;;;;;;;;;;5031154;28;20436;-78
2022/04/24 12:40:42;;;;;;;9.35;3.85;;;;;;;;;;5036653;28;20033;-79
2022/04/24 12:43:08;;;;;;;10.80;3.15;;;;;;;;;;5017856;28;20832;-78
2022/04/24 12:45:34;;;;;;;5.28;3.30;;;;;;;;;;5015991;28;20033;-78
2022/04/24 12:48:00;;;;;;;7.95;3.60;;;;;;;;;;5035866;28;20370;-77
2022/04/24 12:50:26;;;;;;;5.28;3.08;;;;;;;;;;5028908;28;20400;-78
2022/04/24 12:52:53;;;;;;;5.22;3.42;;;;;;;;;;5027620;28;20036;-78
2022/04/24 12:55:19;;;;;;;4.47;2.83;;;;;;;;;;5031590;28;20029;-78
2022/04/24 12:57:45;;;;;;;7.65;3.47;;;;;;;;;;5017342;28;20087;-84
2022/04/24 13:00:11;;;;;;;8.93;4.78;;;;;;;;;;5024040;28;20057;-79
2022/04/24 13:02:37;;;;;;;4.75;3.80;;;;;;;;;;5022255;28;20379;-78
2022/04/24 13:05:04;;;;;;;5.50;3.00;;;;;;;;;;5025499;28;20054;-78
2022/04/24 13:07:30;;;;;;;6.03;2.88;;;;;;;;;;5037808;28;20033;-79
2022/04/24 13:09:58;;;;;;;4.00;3.17;;;;;;;;;;5020717;28;20072;-78
2022/04/24 13:12:24;;;;;;;5.82;2.85;;;;;;;;;;5025331;28;20026;-79
2022/04/24 13:14:50;;;;;;;4.03;3.25;;;;;;;;;;4998258;28;20038;-80
2022/04/24 13:20:01;;;;;;;4.60;2.88;;;;;;;;;;5030913;28;20112;-79
2022/04/24 13:22:27;;;;;;;11.07;3.40;;;;;;;;;;5014617;28;20044;-80
2022/04/24 13:24:53;;;;;;;6.45;3.10;;;;;;;;;;4996240;28;20054;-79
2022/04/24 13:27:19;;;;;;;10.02;3.53;;;;;;;;;;5027080;28;20548;-79
2022/04/24 13:29:45;;;;;;;5.15;2.65;;;;;;;;;;5033484;28;20029;-78
2022/04/24 13:32:11;;;;;;;8.90;5.60;;;;;;;;;;5030160;28;20021;-77
2022/04/24 13:34:38;;;;;;;9.00;4.30;;;;;;;;;;5033421;28;20033;-80
2022/04/24 13:39:50;;;;;;;4.13;3.08;;;;;;;;;;5024076;28;20041;-80
2022/04/24 13:42:16;;;;;;;8.07;2.67;;;;;;;;;;5015291;28;20025;-79
2022/04/24 13:44:43;;;;;;;5.20;2.65;;;;;;;;;;5027217;28;20091;-79
2022/04/24 13:47:09;;;;;;;6.10;3.72;;;;;;;;;;5031184;28;20484;-81
2022/04/24 13:49:36;;;;;;;6.13;3.13;;;;;;;;;;5018579;28;20108;-79
2022/04/24 13:52:02;;;;;;;7.05;3.08;;;;;;;;;;5009901;28;20029;-79
2022/04/24 13:54:28;;;;;;;6.65;2.90;;;;;;;;;;5025536;28;20484;-80
2022/04/24 13:56:56;;;;;;;7.78;2.65;;;;;;;;;;5002693;28;20060;-81
2022/04/24 13:59:23;;;;;;;6.57;2.70;;;;;;;;;;5015334;28;20026;-88
2022/04/24 14:01:50;;;;;;;4.72;3.28;;;;;;;;;;5030362;28;20034;-86
2022/04/24 14:04:16;;;;;;;3.92;2.70;;;;;;;;;;5041690;28;20033;-82
2022/04/24 14:06:43;;;;;;;6.22;2.90;;;;;;;;;;5034906;28;20349;-84
2022/04/24 14:09:09;;;;;;;8.57;2.13;;;;;;;;;;5033706;28;20059;-80
2022/04/24 14:11:35;;;;;;;5.43;2.60;;;;;;;;;;5033620;28;20033;-81
2022/04/24 14:14:01;;;;;;;4.85;2.50;;;;;;;;;;5039946;28;20056;-82
2022/04/24 14:16:29;;;;;;;13.52;2.70;;;;;;;;;;5034772;28;20442;-75
2022/04/24 14:18:55;;;;;;;8.88;6.43;;;;;;;;;;5031095;28;20041;-79
2022/04/24 14:21:21;;;;;;;3.65;2.33;;;;;;;;;;5029843;28;20049;-77
2022/04/24 14:23:47;;;;;;;4.80;2.17;;;;;;;;;;5014300;28;20041;-77
2022/04/24 14:26:14;;;;;;;4.15;2.22;;;;;;;;;;5031597;28;20131;-78
2022/04/24 14:28:40;;;;;;;7.88;2.67;;;;;;;;;;5031853;28;20389;-80
2022/04/24 14:31:06;;;;;;;7.65;2.30;;;;;;;;;;5029222;28;20040;-79
2022/04/24 14:33:33;;;;;;;3.97;2.05;;;;;;;;;;5031257;28;20037;-79
2022/04/24 14:36:00;;;;;;;7.35;2.13;;;;;;;;;;5020273;28;20037;-79
2022/04/24 14:38:26;;;;;;;5.25;2.35;;;;;;;;;;5027475;28;20432;-79
2022/04/24 14:40:52;;;;;;;8.80;3.53;;;;;;;;;;5030553;28;20113;-79
2022/04/24 14:43:20;;;;;;;4.80;2.55;;;;;;;;;;5032193;28;20091;-78
2022/04/24 14:56:45;;;;;;;4.85;2.30;;;;;;;;;;5023747;28;20048;-79
2022/04/24 14:59:15;;;;;;;4.85;2.05;;;;;;;;;;5013638;28;20051;-80
2022/04/24 15:01:41;;;;;;;9.52;2.70;;;;;;;;;;5014866;28;20127;-80